createdAt,value
2023-04-28T00:02:23.634Z,26.58
2023-04-28T00:05:36.038Z,29.75
2023-04-28T00:08:48.795Z,32.53
2023-04-28T00:12:01.012Z,29.15
2023-04-28T00:15:15.512Z,26.38
2023-04-28T00:18:29.237Z,19.95
2023-04-28T00:21:41.614Z,24.83
2023-04-28T00:24:53.780Z,29.35
2023-04-28T00:28:05.922Z,24.55
2023-04-28T00:31:21.957Z,31.70
2023-04-28T00:34:34.342Z,34.60
2023-04-28T00:37:46.588Z,29.85
2023-04-28T00:40:58.847Z,33.40
2023-04-28T00:44:11.468Z,29.75
2023-04-28T00:47:25.413Z,31.98
2023-04-28T00:50:37.793Z,31.83
2023-04-28T00:53:50.847Z,30.40
2023-04-28T00:57:03.637Z,36.10
2023-04-28T01:00:19.057Z,42.08
2023-04-28T01:03:31.490Z,33.65
2023-04-28T01:06:45.121Z,36.45
2023-04-28T01:09:57.104Z,37.93
2023-04-28T01:13:11.106Z,31.83
2023-04-28T01:16:26.357Z,38.93
2023-04-28T01:19:39.056Z,35.98
2023-04-28T01:22:52.720Z,39.55
2023-04-28T01:26:05.613Z,34.35
2023-04-28T01:29:19.077Z,38.93
2023-04-28T01:32:31.708Z,34.68
2023-04-28T01:35:43.994Z,36.68
2023-04-28T01:38:56.184Z,36.15
2023-04-28T01:42:09.141Z,30.85
2023-04-28T01:45:21.608Z,30.88
2023-04-28T01:48:33.823Z,32.10
2023-04-28T01:51:46.136Z,33.75
2023-04-28T01:54:59.702Z,34.10
2023-04-28T01:58:12.209Z,34.05
2023-04-28T02:01:24.352Z,36.98
2023-04-28T02:04:36.826Z,29.98
2023-04-28T02:07:49.111Z,34.80
2023-04-28T02:11:01.958Z,33.30
2023-04-28T02:14:14.592Z,29.38
2023-04-28T02:17:27.303Z,27.33
2023-04-28T02:20:39.505Z,32.23
2023-04-28T02:23:53.339Z,30.20
2023-04-28T02:27:05.527Z,34.70
2023-04-28T02:30:19.668Z,26.73
2023-04-28T02:33:31.805Z,34.25
2023-04-28T02:36:45.168Z,26.50
2023-04-28T02:39:58.542Z,30.00
2023-04-28T02:43:10.916Z,38.65
2023-04-28T02:46:22.975Z,33.43
2023-04-28T02:49:35.131Z,32.20
2023-04-28T02:52:49.053Z,30.93
2023-04-28T02:56:02.474Z,30.45
2023-04-28T02:59:15.276Z,31.78
2023-04-28T03:02:27.442Z,30.80
2023-04-28T03:05:39.798Z,34.53
2023-04-28T03:08:52.094Z,33.78
2023-04-28T03:12:04.080Z,32.65
2023-04-28T03:15:18.712Z,31.58
2023-04-28T03:18:31.292Z,31.60
2023-04-28T03:21:43.985Z,34.40
2023-04-28T03:24:57.852Z,29.40
2023-04-28T03:28:10.902Z,34.03
2023-04-28T03:31:23.109Z,32.05
2023-04-28T03:34:35.487Z,32.43
2023-04-28T03:37:48.713Z,36.05
2023-04-28T03:41:01.068Z,35.48
2023-04-28T03:44:31.765Z,34.10
2023-04-28T03:47:44.402Z,35.80
2023-04-28T03:50:56.779Z,35.15
2023-04-28T03:54:10.598Z,36.18
2023-04-28T03:57:22.832Z,39.13
2023-04-28T04:00:36.916Z,39.63
2023-04-28T04:03:49.234Z,37.15
2023-04-28T04:07:05.094Z,35.78
2023-04-28T04:10:18.829Z,36.50
2023-04-28T04:13:31.141Z,34.33
2023-04-28T04:16:43.531Z,34.58
2023-04-28T04:19:55.675Z,38.23
2023-04-28T04:23:08.015Z,40.03
2023-04-28T04:26:21.933Z,37.20
2023-04-28T04:29:35.974Z,39.23
2023-04-28T04:32:49.785Z,33.65
2023-04-28T04:36:02.149Z,32.55
2023-04-28T04:39:15.554Z,37.78
2023-04-28T05:00:58.002Z,33.93
2023-04-28T05:04:11.296Z,35.85
2023-04-28T05:07:23.836Z,34.50
2023-04-28T05:10:36.002Z,31.48
2023-04-28T05:13:48.869Z,34.53
2023-04-28T05:17:01.587Z,75.63
2023-04-28T05:20:18.026Z,43.43
2023-04-28T05:23:30.434Z,33.68
2023-04-28T05:26:43.457Z,27.65
2023-04-28T06:29:24.950Z,13.53
2023-04-28T06:32:37.796Z,18.00
2023-04-28T06:35:53.257Z,16.80
2023-04-28T06:39:05.997Z,31.90
2023-04-28T06:42:20.916Z,27.25
2023-04-28T06:45:34.916Z,28.35
2023-04-28T06:48:48.932Z,23.68
2023-04-28T06:52:02.466Z,30.58
2023-04-28T06:55:20.605Z,25.83
2023-04-28T06:58:33.426Z,24.25
2023-04-28T07:01:46.270Z,28.73
2023-04-28T07:04:58.746Z,23.98
2023-04-28T07:08:12.177Z,59.25
2023-04-28T07:11:25.216Z,32.33
2023-04-28T07:14:37.730Z,18.50
2023-04-28T07:17:50.089Z,16.38
2023-04-28T07:21:04.832Z,15.88
2023-04-28T07:24:17.985Z,16.05
2023-04-28T07:27:31.061Z,10.48
2023-04-28T07:30:43.523Z,12.90
2023-04-28T07:33:55.797Z,10.28
2023-04-28T07:37:08.919Z,12.20
2023-04-28T07:40:22.012Z,14.18
2023-04-28T07:43:34.180Z,7.58
2023-04-28T07:46:47.327Z,10.58
2023-04-28T07:50:00.818Z,7.20
2023-04-28T07:53:13.123Z,8.95
2023-04-28T07:56:26.222Z,9.78
2023-04-28T07:59:38.861Z,7.08
2023-04-28T08:02:51.578Z,9.38
2023-04-28T08:06:05.151Z,11.70
2023-04-28T08:09:17.863Z,6.78
2023-04-28T08:12:30.354Z,13.08
2023-04-28T08:15:42.796Z,8.68
2023-04-28T08:18:55.422Z,7.88
2023-04-28T08:22:08.423Z,9.98
2023-04-28T08:25:21.051Z,10.50
2023-04-28T08:28:34.357Z,8.95
2023-04-28T08:31:47.514Z,9.40
2023-04-28T08:35:00.714Z,7.73
2023-04-28T08:38:15.518Z,11.60
2023-04-28T08:41:28.189Z,8.18
2023-04-28T08:44:45.014Z,7.20
2023-04-28T08:47:58.432Z,10.95
2023-04-28T08:51:13.010Z,8.13
2023-04-28T08:54:27.055Z,7.88
2023-04-28T08:57:44.783Z,11.38
2023-04-28T09:00:57.501Z,7.48
2023-04-28T09:04:13.473Z,8.23
2023-04-28T09:07:25.425Z,14.28
2023-04-28T09:10:38.431Z,9.63
2023-04-28T09:13:52.987Z,6.35
2023-04-28T09:17:05.706Z,6.40
2023-04-28T09:20:29.658Z,7.05
2023-04-28T09:23:52.939Z,13.80
2023-04-28T09:27:07.843Z,9.73
2023-04-28T09:30:21.535Z,9.58
2023-04-28T09:33:41.779Z,8.88
2023-04-28T09:36:57.699Z,13.93
2023-04-28T09:40:16.968Z,7.05
2023-04-28T09:43:38.460Z,7.93
2023-04-28T09:46:52.504Z,9.28
2023-04-28T09:50:06.889Z,8.23
2023-04-28T09:53:20.497Z,8.78
2023-04-28T09:56:35.517Z,7.10
2023-04-28T09:59:48.812Z,7.00
2023-04-28T10:03:01.563Z,7.65
2023-04-28T10:06:14.890Z,6.78
2023-04-28T10:09:29.282Z,6.13
2023-04-28T10:12:42.188Z,8.10
2023-04-28T10:15:55.843Z,16.25
2023-04-28T10:19:14.044Z,8.88
2023-04-28T10:22:56.761Z,7.63
2023-04-28T10:26:16.612Z,7.53
2023-04-28T10:29:33.312Z,6.53
2023-04-28T10:32:46.153Z,11.25
2023-04-28T10:35:59.276Z,7.00
2023-04-28T10:39:18.794Z,14.18
2023-04-28T10:43:00.890Z,16.48
2023-04-28T10:46:15.220Z,13.58
2023-04-28T10:49:32.112Z,19.25
2023-04-28T10:53:00.862Z,9.33
2023-04-28T10:56:16.947Z,8.53
2023-04-28T10:59:35.214Z,13.48
2023-04-28T11:02:50.465Z,14.00
2023-04-28T11:06:29.213Z,5.85
2023-04-28T11:09:58.309Z,9.25
2023-04-28T11:13:36.292Z,6.40
2023-04-28T11:16:59.827Z,5.80
2023-04-28T11:20:17.139Z,11.28
2023-04-28T11:23:31.584Z,9.23
2023-04-28T11:26:45.229Z,9.55
2023-04-28T11:29:58.552Z,8.13
2023-04-28T11:33:11.454Z,12.00
2023-04-28T11:36:36.164Z,7.08
2023-04-28T11:39:48.279Z,7.75
2023-04-28T11:43:01.919Z,7.10
2023-04-28T11:46:15.313Z,6.40
2023-04-28T11:49:29.303Z,7.45
2023-04-28T11:52:41.731Z,5.13
2023-04-28T11:55:53.918Z,7.23
2023-04-28T11:59:12.685Z,11.10
2023-04-28T12:02:33.964Z,13.25
2023-04-28T12:05:53.284Z,6.50
2023-04-28T12:09:06.233Z,14.65
2023-04-28T12:12:22.993Z,7.50
2023-04-28T12:15:47.739Z,10.68
2023-04-28T12:19:09.235Z,8.63
2023-04-28T12:22:21.432Z,12.90
2023-04-28T12:25:34.391Z,6.98
2023-04-28T12:28:47.544Z,7.10
2023-04-28T12:31:59.805Z,5.83
2023-04-28T12:35:13.928Z,12.40
2023-04-28T12:38:26.136Z,12.08
2023-04-28T12:41:38.569Z,7.63
2023-04-28T12:44:50.664Z,9.48
2023-04-28T12:48:03.595Z,6.00
2023-04-28T12:51:15.707Z,9.38
2023-04-28T12:54:28.014Z,7.50
2023-04-28T12:57:40.730Z,8.43
2023-04-28T13:00:52.952Z,7.03
2023-04-28T13:04:05.177Z,6.90
2023-04-28T13:07:17.772Z,5.73
2023-04-28T13:10:30.057Z,6.35
2023-04-28T13:13:43.204Z,8.45
2023-04-28T13:16:55.730Z,8.68
2023-04-28T13:20:08.433Z,7.05
2023-04-28T13:23:20.395Z,6.78
2023-04-28T13:26:32.637Z,8.03
2023-04-28T13:29:44.878Z,11.13
2023-04-28T13:32:57.753Z,10.33
2023-04-28T13:36:11.580Z,7.20
2023-04-28T13:39:23.734Z,5.93
2023-04-28T13:42:36.032Z,10.23
2023-04-28T13:45:48.273Z,6.10
2023-04-28T13:49:00.447Z,6.80
2023-04-28T13:52:12.851Z,11.43
2023-04-28T13:55:27.679Z,5.98
2023-04-28T13:58:41.738Z,5.83
2023-04-28T14:01:53.981Z,49.18
2023-04-28T14:05:06.195Z,18.65
2023-04-28T14:08:20.045Z,7.10
2023-04-28T14:11:32.546Z,9.75
2023-04-28T14:14:44.979Z,4.98
2023-04-28T14:17:58.009Z,7.25
2023-04-28T14:21:10.480Z,9.33
2023-04-28T14:24:22.802Z,9.45
2023-04-28T14:27:35.095Z,5.70
2023-04-28T14:30:47.437Z,8.13
2023-04-28T14:34:00.136Z,5.90
2023-04-28T14:37:12.413Z,10.98
2023-04-28T14:40:24.987Z,8.75
2023-04-28T14:43:38.261Z,9.55
2023-04-28T14:46:50.919Z,11.05
2023-04-28T14:50:03.384Z,5.83
2023-04-28T14:53:15.481Z,8.70
2023-04-28T14:56:29.107Z,89.75
2023-04-28T14:59:41.961Z,31.95
2023-04-28T15:02:54.545Z,8.08
2023-04-28T15:06:07.231Z,8.23
2023-04-28T15:09:19.527Z,7.28
2023-04-28T15:12:34.488Z,10.95
2023-04-28T15:15:46.953Z,24.05
2023-04-28T15:18:59.839Z,10.50
2023-04-28T15:22:12.091Z,9.05
2023-04-28T15:25:24.490Z,6.73
2023-04-28T15:28:36.598Z,5.83
2023-04-28T15:31:49.565Z,6.80
2023-04-28T15:35:01.872Z,12.50
2023-04-28T15:38:15.223Z,9.55
2023-04-28T15:41:27.858Z,7.33
2023-04-28T15:44:40.229Z,11.45
2023-04-28T15:47:55.362Z,21.25
2023-04-28T15:51:07.744Z,7.35
2023-04-28T15:54:21.245Z,8.90
2023-04-28T15:57:33.343Z,8.30
2023-04-28T16:00:46.353Z,7.28
2023-04-28T16:03:58.853Z,10.23
2023-04-28T16:07:11.338Z,12.30
2023-04-28T16:10:23.866Z,8.03
2023-04-28T16:13:37.540Z,10.50
2023-04-28T16:16:49.719Z,16.58
2023-04-28T16:20:02.924Z,24.03
2023-04-28T16:23:15.452Z,10.15
2023-04-28T16:26:28.361Z,9.15
2023-04-28T16:29:40.369Z,12.40
2023-04-28T16:32:53.185Z,10.80
2023-04-28T16:36:05.925Z,7.40
2023-04-28T16:39:18.365Z,6.20
2023-04-28T16:42:30.939Z,8.95
2023-04-28T16:45:43.236Z,6.10
2023-04-28T16:48:55.443Z,9.58
2023-04-28T16:52:09.787Z,11.80
2023-04-28T16:55:22.019Z,8.80
2023-04-28T16:58:34.188Z,6.48
2023-04-28T17:01:46.685Z,8.68
2023-04-28T17:04:59.736Z,12.33
2023-04-28T17:08:12.378Z,11.73
2023-04-28T17:11:25.209Z,6.95
2023-04-28T17:14:37.590Z,16.33
2023-04-28T17:17:50.942Z,27.63
2023-04-28T17:21:04.266Z,17.18
2023-04-28T17:24:16.610Z,8.23
2023-04-28T17:27:29.306Z,9.68
2023-04-28T17:30:46.913Z,11.40
2023-04-28T17:33:59.284Z,11.63
2023-04-28T17:37:11.656Z,10.88
2023-04-28T17:40:24.474Z,11.90
2023-04-28T17:43:37.848Z,11.10
2023-04-28T17:46:50.500Z,13.78
2023-04-28T17:50:03.761Z,12.18
2023-04-28T17:53:17.092Z,15.80
2023-04-28T17:56:29.913Z,16.40
2023-04-28T17:59:42.938Z,13.58
2023-04-28T18:02:55.818Z,17.08
2023-04-28T18:06:09.109Z,14.58
2023-04-28T18:09:21.352Z,9.78
2023-04-28T18:15:34.509Z,9.20
2023-04-28T18:18:48.254Z,8.45
2023-04-28T18:22:00.764Z,14.20
2023-04-28T18:25:16.687Z,9.95
2023-04-28T18:28:29.112Z,10.68
2023-04-28T18:31:42.487Z,18.28
2023-04-28T18:34:56.435Z,15.68
2023-04-28T18:38:09.142Z,12.10
2023-04-28T18:41:24.028Z,10.80
2023-04-28T18:44:37.212Z,13.18
2023-04-28T18:47:49.745Z,19.05
2023-04-28T18:51:03.896Z,12.93
2023-04-28T18:54:17.141Z,15.18
2023-04-28T18:57:29.561Z,13.63
2023-04-28T19:00:42.801Z,19.83
2023-04-28T19:03:55.748Z,16.33
2023-04-28T19:07:08.380Z,16.05
2023-04-28T19:10:21.230Z,12.90
2023-04-28T19:13:33.580Z,14.18
2023-04-28T19:16:46.023Z,15.08
2023-04-28T19:20:00.831Z,20.15
2023-04-28T19:23:13.420Z,17.63
2023-04-28T19:26:25.845Z,19.65
2023-04-28T19:37:26.222Z,16.65
2023-04-28T19:40:38.327Z,22.05
2023-04-28T19:43:50.831Z,18.83
2023-04-28T19:47:03.044Z,18.33
2023-04-28T19:50:29.180Z,16.33
2023-04-28T19:57:24.001Z,17.75
2023-04-28T20:00:36.198Z,14.08
2023-04-28T20:03:48.474Z,14.43
2023-04-28T20:07:12.088Z,15.23
2023-04-28T20:14:26.093Z,17.30
2023-04-28T20:17:38.836Z,18.48
2023-04-28T20:20:51.187Z,13.88
2023-04-28T20:24:03.403Z,14.33
2023-04-28T20:27:16.017Z,21.88
2023-04-28T20:30:39.649Z,21.00
2023-04-28T20:37:32.394Z,20.70
2023-04-28T20:40:45.605Z,23.95
2023-04-28T20:43:58.008Z,18.23
2023-04-28T20:47:23.252Z,22.18
2023-04-28T20:50:39.546Z,18.58
2023-04-28T20:53:53.394Z,16.45
2023-04-28T20:57:06.040Z,22.68
2023-04-28T21:00:20.927Z,21.83
2023-04-28T21:03:34.212Z,19.03
2023-04-28T21:06:46.831Z,21.68
2023-04-28T21:09:59.270Z,18.35
2023-04-28T21:13:14.386Z,22.98
2023-04-28T21:16:29.178Z,21.05
2023-04-28T21:19:42.700Z,18.83
2023-04-28T21:26:38.198Z,18.08
2023-04-28T21:29:50.946Z,16.80
2023-04-28T21:33:03.605Z,21.98
2023-04-28T21:39:57.887Z,18.90
2023-04-28T21:43:10.830Z,24.58
2023-04-28T21:46:23.041Z,20.80
2023-04-28T21:49:35.317Z,18.20
2023-04-28T21:52:47.341Z,23.43
2023-04-28T21:55:59.523Z,25.05
2023-04-28T21:59:11.880Z,21.58
2023-04-28T22:02:25.513Z,20.45
2023-04-28T22:05:38.809Z,17.30
2023-04-28T22:08:50.987Z,20.98
2023-04-28T22:12:03.289Z,23.88
2023-04-28T22:15:17.490Z,20.58
2023-04-28T22:18:29.817Z,22.03
2023-04-28T22:21:42.412Z,33.30
2023-04-28T22:24:54.571Z,23.53
2023-04-28T22:28:06.619Z,23.13
2023-04-28T22:31:18.699Z,24.95
2023-04-28T22:34:30.962Z,22.55
2023-04-28T22:37:43.266Z,28.28
2023-04-28T22:40:55.439Z,27.53
2023-04-28T22:44:07.637Z,20.93
2023-04-28T22:47:19.860Z,21.33
2023-04-28T22:50:32.185Z,23.90
2023-04-28T22:53:44.479Z,24.55
2023-04-28T22:56:56.591Z,25.28
2023-04-28T23:00:09.615Z,24.20
2023-04-28T23:03:22.132Z,24.05
2023-04-28T23:06:34.833Z,24.03
2023-04-28T23:09:46.842Z,23.13
2023-04-28T23:12:58.893Z,21.48
2023-04-28T23:16:12.546Z,21.80
2023-04-28T23:19:24.856Z,25.00
2023-04-28T23:22:37.058Z,24.33
2023-04-28T23:25:51.257Z,28.58
2023-04-28T23:29:03.672Z,25.93
2023-04-28T23:32:15.879Z,24.00
2023-04-28T23:35:28.186Z,27.33
2023-04-28T23:38:40.435Z,21.65
2023-04-28T23:41:53.208Z,29.80
2023-04-28T23:45:07.163Z,26.45
2023-04-28T23:48:19.326Z,25.90
2023-04-28T23:51:32.439Z,25.08
2023-04-28T23:54:44.792Z,24.65
2023-04-28T23:57:57.013Z,31.18
